ZKRJZ NZPM-NZWB
Flight info
| Callsign | ZKRJZ |
|---|---|
| Flight time | N/A |
| Altitude | 16000 |
| Route | SAKBA H201 KAPTI Q169 AVKEX Q472 IPMIR |
| Aircraft | C25B/L-SDFGRWY/S |
Departure
| Time | 2026-05-04 07:12 |
|---|---|
| Airport | Palmerston North Airport (NZPM) |
Arrival
| Time | N/A |
|---|---|
| Airport | Woodbourne Airport (NZWB) |
| Time | Latitude | Longitude | Altitude | Speed | Heading |
|---|---|---|---|---|---|
| 2026-05-04 06:58 | -40.32430 | 175.61951 | 155 ft | 0 kts | 0° |
| 2026-05-04 07:09 | -40.32362 | 175.61954 | 155 ft | 14 kts | 359° |
| 2026-05-04 07:09 | -40.32264 | 175.61958 | 155 ft | 16 kts | 359° |
| 2026-05-04 07:10 | -40.32246 | 175.62060 | 155 ft | 20 kts | 94° |
| 2026-05-04 07:10 | -40.32222 | 175.62198 | 155 ft | 13 kts | 37° |
| 2026-05-04 07:12 | -40.31984 | 175.61983 | 155 ft | 78 kts | 270° |
| 2026-05-04 07:12 | -40.31989 | 175.60921 | 353 ft | 140 kts | 270° |
| 2026-05-04 07:12 | -40.31988 | 175.59700 | 1555 ft | 135 kts | 270° |
| 2026-05-04 07:12 | -40.31997 | 175.58327 | 2383 ft | 169 kts | 270° |
| 2026-05-04 07:13 | -40.32013 | 175.56615 | 3191 ft | 203 kts | 270° |
| 2026-05-04 07:13 | -40.32020 | 175.54612 | 4158 ft | 232 kts | 270° |
| 2026-05-04 07:13 | -40.32016 | 175.52513 | 5350 ft | 228 kts | 271° |
| 2026-05-04 07:14 | -40.31987 | 175.44021 | 9881 ft | 241 kts | 269° |
| 2026-05-04 07:14 | -40.31920 | 175.41817 | 10927 ft | 245 kts | 265° |
| 2026-05-04 07:15 | -40.32340 | 175.39699 | 11931 ft | 246 kts | 242° |
| 2026-05-04 07:15 | -40.33395 | 175.37932 | 12894 ft | 249 kts | 224° |
| 2026-05-04 07:15 | -40.34750 | 175.36494 | 13801 ft | 253 kts | 215° |
| 2026-05-04 07:15 | -40.36234 | 175.35234 | 14659 ft | 256 kts | 211° |
| 2026-05-04 07:16 | -40.37789 | 175.34055 | 15479 ft | 260 kts | 210° |
| 2026-05-04 07:16 | -40.39388 | 175.32907 | 16221 ft | 266 kts | 209° |
| 2026-05-04 07:16 | -40.41098 | 175.31703 | 16412 ft | 290 kts | 208° |
| 2026-05-04 07:16 | -40.42942 | 175.30414 | 16549 ft | 310 kts | 208° |
| 2026-05-04 07:17 | -40.44902 | 175.29046 | 16606 ft | 328 kts | 208° |
| 2026-05-04 07:17 | -40.46956 | 175.27610 | 16612 ft | 335 kts | 208° |
| 2026-05-04 07:17 | -40.48988 | 175.26150 | 16607 ft | 331 kts | 212° |
| 2026-05-04 07:17 | -40.50773 | 175.24265 | 16608 ft | 328 kts | 225° |
| 2026-05-04 07:18 | -40.52285 | 175.22037 | 16607 ft | 326 kts | 232° |
| 2026-05-04 07:18 | -40.53620 | 175.19643 | 16605 ft | 324 kts | 236° |
| 2026-05-04 07:18 | -40.54854 | 175.17168 | 16603 ft | 323 kts | 238° |
| 2026-05-04 07:18 | -40.56035 | 175.14662 | 16601 ft | 322 kts | 239° |
| 2026-05-04 07:19 | -40.57197 | 175.12149 | 16600 ft | 321 kts | 239° |
| 2026-05-04 07:19 | -40.58359 | 175.09648 | 16599 ft | 321 kts | 239° |
| 2026-05-04 07:19 | -40.59543 | 175.07157 | 16597 ft | 320 kts | 238° |
| 2026-05-04 07:19 | -40.60737 | 175.04683 | 16596 ft | 320 kts | 238° |
| 2026-05-04 07:20 | -40.61935 | 175.02216 | 16594 ft | 320 kts | 238° |
| 2026-05-04 07:20 | -40.63187 | 174.99798 | 16592 ft | 320 kts | 232° |
| 2026-05-04 07:20 | -40.64668 | 174.97664 | 16592 ft | 320 kts | 225° |
| 2026-05-04 07:20 | -40.66325 | 174.95703 | 16591 ft | 319 kts | 220° |
| 2026-05-04 07:22 | -40.78205 | 174.82681 | 16576 ft | 319 kts | 221° |
| 2026-05-04 07:22 | -40.79881 | 174.80765 | 16575 ft | 319 kts | 221° |
| 2026-05-04 07:23 | -40.81558 | 174.78848 | 16572 ft | 319 kts | 221° |
| 2026-05-04 07:23 | -40.83234 | 174.76932 | 16570 ft | 319 kts | 221° |
| 2026-05-04 07:23 | -40.84913 | 174.75013 | 16569 ft | 319 kts | 221° |
| 2026-05-04 07:23 | -40.86588 | 174.73097 | 16566 ft | 319 kts | 221° |
| 2026-05-04 07:24 | -40.88265 | 174.71178 | 16566 ft | 319 kts | 221° |
| 2026-05-04 07:24 | -40.89945 | 174.69255 | 16565 ft | 319 kts | 221° |
| 2026-05-04 07:24 | -40.91621 | 174.67334 | 16564 ft | 319 kts | 221° |
| 2026-05-04 07:24 | -40.93297 | 174.65413 | 16563 ft | 319 kts | 221° |
| 2026-05-04 07:25 | -40.94971 | 174.63493 | 16562 ft | 319 kts | 221° |
| 2026-05-04 07:26 | -41.06693 | 174.50013 | 16096 ft | 323 kts | 221° |
| 2026-05-04 07:27 | -41.08366 | 174.48080 | 15613 ft | 317 kts | 221° |
| 2026-05-04 07:27 | -41.10026 | 174.46165 | 15049 ft | 316 kts | 221° |
| 2026-05-04 07:27 | -41.11117 | 174.44909 | 14685 ft | 311 kts | 221° |
| 2026-05-04 07:27 | -41.12756 | 174.43026 | 14093 ft | 312 kts | 221° |
| 2026-05-04 07:28 | -41.14927 | 174.40528 | 13272 ft | 303 kts | 221° |
| 2026-05-04 07:28 | -41.15971 | 174.39322 | 12970 ft | 299 kts | 221° |
| 2026-05-04 07:28 | -41.17530 | 174.37508 | 12518 ft | 295 kts | 222° |
| 2026-05-04 07:28 | -41.18896 | 174.35810 | 12077 ft | 289 kts | 225° |
| 2026-05-04 07:29 | -41.20335 | 174.33815 | 11479 ft | 289 kts | 227° |
| 2026-05-04 07:29 | -41.21675 | 174.31841 | 10883 ft | 290 kts | 229° |
| 2026-05-04 07:29 | -41.23018 | 174.29812 | 10306 ft | 290 kts | 229° |
| 2026-05-04 07:29 | -41.24342 | 174.27793 | 9756 ft | 290 kts | 229° |
| 2026-05-04 07:30 | -41.25678 | 174.25792 | 9322 ft | 288 kts | 225° |
| 2026-05-04 07:30 | -41.27279 | 174.24228 | 8925 ft | 284 kts | 210° |
| 2026-05-04 07:30 | -41.29056 | 174.23148 | 8531 ft | 278 kts | 201° |
| 2026-05-04 07:30 | -41.30880 | 174.22343 | 8132 ft | 275 kts | 197° |
| 2026-05-04 07:31 | -41.32717 | 174.21677 | 7733 ft | 273 kts | 195° |